createdAt,value
2019-04-27T00:00:44.602Z,95015.75
2019-04-27T00:03:20.228Z,95021.08
2019-04-27T00:05:56.819Z,95014.41
2019-04-27T00:08:38.757Z,95006.39
2019-04-27T00:11:22.997Z,95004.53
2019-04-27T00:13:54.899Z,94997.30
2019-04-27T00:17:00.887Z,94999.66
2019-04-27T00:19:57.527Z,94998.37
2019-04-27T00:22:38.399Z,95002.84
2019-04-27T00:25:10.020Z,94999.63
2019-04-27T00:27:43.580Z,94996.16
2019-04-27T00:30:16.223Z,94994.52
2019-04-27T00:32:47.880Z,94995.05
2019-04-27T00:35:25.886Z,94994.09
2019-04-27T00:38:18.551Z,94994.73
2019-04-27T00:40:56.064Z,94991.56
2019-04-27T00:43:27.754Z,94997.66
2019-04-27T00:45:59.557Z,94995.00
2019-04-27T00:48:33.240Z,94993.94
2019-04-27T00:51:05.331Z,94996.06
2019-04-27T00:53:37.249Z,94992.53
2019-04-27T00:56:27.449Z,94993.05
2019-04-27T00:59:28.633Z,94991.44
2019-04-27T01:02:18.371Z,94991.63
2019-04-27T01:04:50.819Z,94987.08
2019-04-27T01:07:22.805Z,94990.55
2019-04-27T01:09:55.837Z,94989.20
2019-04-27T01:12:27.436Z,94989.72
2019-04-27T01:14:59.082Z,94991.96
2019-04-27T01:17:30.713Z,94985.65
2019-04-27T01:20:05.545Z,94985.92
2019-04-27T01:22:39.128Z,94986.91
2019-04-27T01:25:11.164Z,94982.30
2019-04-27T01:28:13.669Z,94984.19
2019-04-27T01:30:53.923Z,94979.38
2019-04-27T01:33:25.370Z,94973.97
2019-04-27T01:35:58.537Z,94979.73
2019-04-27T01:38:30.504Z,94976.84
2019-04-27T01:41:02.385Z,94970.05
2019-04-27T01:43:38.709Z,94971.69
2019-04-27T01:46:12.793Z,94971.91
2019-04-27T01:48:44.588Z,94970.63
2019-04-27T01:51:16.409Z,94970.33
2019-04-27T01:53:49.205Z,94970.55
2019-04-27T01:56:24.123Z,94969.64
2019-04-27T01:58:55.620Z,94968.64
2019-04-27T02:01:49.049Z,94971.10
2019-04-27T02:04:27.458Z,94970.55
2019-04-27T02:07:00.137Z,94961.21
2019-04-27T02:09:32.041Z,94964.92
2019-04-27T02:12:04.145Z,94960.33
2019-04-27T02:14:35.864Z,94957.49
2019-04-27T02:17:09.596Z,94951.59
2019-04-27T02:19:41.071Z,94954.08
2019-04-27T02:22:12.857Z,94955.36
2019-04-27T02:24:44.695Z,94954.31
2019-04-27T02:27:18.719Z,94951.30
2019-04-27T02:30:21.566Z,94949.08
2019-04-27T02:33:12.807Z,94950.41
2019-04-27T02:35:44.671Z,94943.83
2019-04-27T02:38:16.216Z,94945.10
2019-04-27T02:41:00.183Z,94945.14
2019-04-27T02:43:49.962Z,94944.61
2019-04-27T02:46:21.544Z,94940.06
2019-04-27T02:49:00.242Z,94932.48
2019-04-27T02:51:42.858Z,94934.80
2019-04-27T02:54:13.661Z,94928.68
2019-04-27T02:56:45.666Z,94926.94
2019-04-27T02:59:19.667Z,94924.50
2019-04-27T03:02:04.907Z,94924.25
2019-04-27T03:04:35.540Z,94921.39
2019-04-27T03:07:07.337Z,94926.46
2019-04-27T03:09:39.705Z,94918.20
2019-04-27T03:12:11.876Z,94920.51
2019-04-27T03:15:20.521Z,94914.41
2019-04-27T03:18:10.226Z,94914.31
2019-04-27T03:21:00.739Z,94915.30
2019-04-27T03:23:32.522Z,94916.53
2019-04-27T03:26:23.300Z,94913.41
2019-04-27T03:28:54.942Z,94911.27
2019-04-27T03:31:26.583Z,94911.84
2019-04-27T03:34:04.522Z,94907.63
2019-04-27T03:36:32.298Z,94908.13
2019-04-27T03:39:04.482Z,94907.78
2019-04-27T03:41:36.668Z,94908.14
2019-04-27T03:44:09.378Z,94908.70
2019-04-27T03:46:41.018Z,94910.16
2019-04-27T03:49:27.778Z,94909.42
2019-04-27T03:51:55.781Z,94904.64
2019-04-27T03:54:40.119Z,94912.44
2019-04-27T03:57:39.971Z,94905.86
2019-04-27T04:00:16.561Z,94909.73
2019-04-27T04:02:50.218Z,94910.05
2019-04-27T04:05:21.915Z,94914.71
2019-04-27T04:07:53.964Z,94912.33
2019-04-27T04:10:29.271Z,94908.43
2019-04-27T04:13:23.962Z,94908.98
2019-04-27T04:16:01.626Z,94904.77
2019-04-27T04:18:52.346Z,94909.23
2019-04-27T04:21:25.429Z,94915.25
2019-04-27T04:23:57.276Z,94915.57
2019-04-27T04:26:29.450Z,94915.09
2019-04-27T04:29:00.838Z,94907.91
2019-04-27T04:31:33.435Z,94910.67
2019-04-27T04:34:05.221Z,94911.75
2019-04-27T04:36:36.915Z,94911.52
2019-04-27T04:39:11.975Z,94910.20
2019-04-27T04:41:59.730Z,94899.90
2019-04-27T04:44:53.534Z,94902.14
2019-04-27T04:47:41.528Z,94899.78
2019-04-27T04:50:15.245Z,94895.53
2019-04-27T04:52:46.786Z,94900.67
2019-04-27T04:55:20.358Z,94910.20
2019-04-27T04:57:52.326Z,94897.68
2019-04-27T05:00:24.013Z,94893.39
2019-04-27T05:02:55.665Z,94901.94
2019-04-27T05:05:27.008Z,94902.28
2019-04-27T05:08:00.660Z,94901.55
2019-04-27T05:10:32.168Z,94902.92
2019-04-27T05:13:04.027Z,94905.90
2019-04-27T05:15:35.827Z,94902.47
2019-04-27T05:18:09.071Z,94899.30
2019-04-27T05:20:53.405Z,94896.64
2019-04-27T05:23:25.116Z,94888.89
2019-04-27T05:25:56.677Z,94897.48
2019-04-27T05:28:29.902Z,94896.67
2019-04-27T05:31:00.708Z,94905.73
2019-04-27T05:33:32.299Z,94893.95
2019-04-27T05:36:04.203Z,94897.15
2019-04-27T05:38:41.921Z,94893.61
2019-04-27T05:41:09.588Z,94892.45
2019-04-27T05:44:05.718Z,94892.41
2019-04-27T05:46:53.979Z,94893.87
2019-04-27T05:49:41.060Z,94888.84
2019-04-27T05:52:29.693Z,94892.69
2019-04-27T05:55:02.023Z,94888.01
2019-04-27T05:57:33.774Z,94888.11
2019-04-27T06:00:09.014Z,94893.84
2019-04-27T06:02:40.575Z,94884.31
2019-04-27T06:05:15.889Z,94886.82
2019-04-27T06:07:45.287Z,94883.77
2019-04-27T06:10:17.091Z,94884.70
2019-04-27T06:12:48.684Z,94875.14
2019-04-27T06:15:20.379Z,94873.61
2019-04-27T06:17:52.052Z,94872.45
2019-04-27T06:20:23.898Z,94873.97
2019-04-27T06:22:55.474Z,94872.53
2019-04-27T06:25:30.353Z,94873.80
2019-04-27T06:28:00.693Z,94872.57
2019-04-27T06:30:32.246Z,94873.22
2019-04-27T06:33:04.101Z,94871.48
2019-04-27T06:35:35.533Z,94870.44
2019-04-27T06:38:07.254Z,94864.81
2019-04-27T06:40:39.969Z,94863.30
2019-04-27T06:43:11.757Z,94867.43
2019-04-27T06:45:43.367Z,94864.41
2019-04-27T06:48:15.237Z,94861.66
2019-04-27T06:50:46.800Z,94858.97
2019-04-27T06:53:19.910Z,94851.86
2019-04-27T06:55:51.237Z,94857.51
2019-04-27T06:58:23.181Z,94858.67
2019-04-27T07:00:54.828Z,94853.23
2019-04-27T07:03:26.347Z,94859.65
2019-04-27T07:05:58.887Z,94855.80
2019-04-27T07:08:30.853Z,94853.84
2019-04-27T07:11:03.134Z,94853.41
2019-04-27T07:13:34.737Z,94847.02
2019-04-27T07:16:06.490Z,94851.14
2019-04-27T07:18:39.694Z,94853.41
2019-04-27T07:21:19.006Z,94848.94
2019-04-27T07:24:00.621Z,94842.86
2019-04-27T07:26:32.859Z,94842.98
2019-04-27T07:29:04.790Z,94852.31
2019-04-27T07:31:40.077Z,94848.61
2019-04-27T07:34:13.319Z,94842.70
2019-04-27T07:36:46.696Z,94832.94
2019-04-27T07:39:19.272Z,94834.16
2019-04-27T07:41:51.389Z,94830.84
2019-04-27T07:44:40.027Z,94829.43
2019-04-27T07:47:20.231Z,94828.48
2019-04-27T07:49:52.093Z,94828.30
2019-04-27T07:52:26.627Z,94826.33
2019-04-27T07:54:58.804Z,94826.83
2019-04-27T07:57:30.656Z,94825.21
2019-04-27T08:00:02.294Z,94819.82
2019-04-27T08:02:34.314Z,94817.91
2019-04-27T08:05:06.222Z,94810.06
2019-04-27T08:07:39.142Z,94805.02
2019-04-27T08:10:10.119Z,94806.11
2019-04-27T08:12:41.871Z,94804.53
2019-04-27T08:15:13.864Z,94803.91
2019-04-27T08:17:45.590Z,94801.45
2019-04-27T08:20:20.873Z,94797.53
2019-04-27T08:22:50.839Z,94800.08
2019-04-27T08:25:23.994Z,94797.94
2019-04-27T08:28:04.183Z,94795.52
2019-04-27T08:31:03.919Z,94799.36
2019-04-27T08:33:35.914Z,94798.23
2019-04-27T08:36:08.998Z,94789.81
2019-04-27T08:38:41.170Z,94776.44
2019-04-27T08:41:13.018Z,94782.27
2019-04-27T08:43:44.417Z,94777.84
2019-04-27T08:46:16.260Z,94777.75
2019-04-27T08:48:48.991Z,94771.84
2019-04-27T08:51:20.800Z,94762.77
2019-04-27T08:53:52.346Z,94762.06
2019-04-27T08:56:24.066Z,94756.16
2019-04-27T08:58:55.819Z,94747.80
2019-04-27T09:01:29.918Z,94743.14
2019-04-27T09:04:01.694Z,94743.53
2019-04-27T09:06:37.276Z,94739.95
2019-04-27T09:09:14.031Z,94730.94
2019-04-27T09:12:00.903Z,94726.66
2019-04-27T09:14:43.627Z,94731.61
2019-04-27T09:17:22.859Z,94719.66
2019-04-27T09:20:13.275Z,94724.95
2019-04-27T09:22:45.133Z,94715.48
2019-04-27T09:25:16.986Z,94708.05
2019-04-27T09:27:49.283Z,94703.05
2019-04-27T09:30:20.822Z,94695.96
2019-04-27T09:32:52.605Z,94693.48
2019-04-27T09:35:26.344Z,94693.48
2019-04-27T09:37:57.700Z,94687.31
2019-04-27T09:40:29.626Z,94687.31
2019-04-27T09:43:01.440Z,94683.88
2019-04-27T09:45:33.556Z,94671.27
2019-04-27T09:48:06.648Z,94672.53
2019-04-27T09:50:39.752Z,94669.86
2019-04-27T09:53:11.862Z,94670.71
2019-04-27T09:55:43.763Z,94664.08
2019-04-27T09:58:15.988Z,94652.36
2019-04-27T10:00:49.696Z,94648.75
2019-04-27T10:03:21.853Z,94638.75
2019-04-27T10:05:53.517Z,94636.66
2019-04-27T10:08:26.185Z,94629.66
2019-04-27T10:10:57.000Z,94618.95
2019-04-27T10:13:28.870Z,94614.04
2019-04-27T10:16:00.588Z,94605.81
2019-04-27T10:18:32.374Z,94591.11
2019-04-27T10:21:04.041Z,94594.97
2019-04-27T10:23:36.518Z,94600.20
2019-04-27T10:26:09.656Z,94598.25
2019-04-27T10:28:41.255Z,94595.82
2019-04-27T10:31:12.894Z,94590.53
2019-04-27T10:33:45.876Z,94594.55
2019-04-27T10:36:20.472Z,94588.42
2019-04-27T10:38:52.341Z,94594.22
2019-04-27T10:41:25.895Z,94607.63
2019-04-27T10:43:57.663Z,94626.19
2019-04-27T10:46:29.456Z,94641.91
2019-04-27T10:49:02.483Z,94647.06
2019-04-27T10:51:34.193Z,94648.05
2019-04-27T10:54:06.734Z,94657.68
2019-04-27T10:56:38.513Z,94655.47
2019-04-27T10:59:10.639Z,94643.99
2019-04-27T11:01:42.560Z,94626.68
2019-04-27T11:04:36.806Z,94627.84
2019-04-27T11:07:11.054Z,94631.65
2019-04-27T11:09:42.704Z,94625.36
2019-04-27T11:12:15.820Z,94623.73
2019-04-27T11:14:46.881Z,94615.02
2019-04-27T11:17:18.493Z,94606.06
2019-04-27T11:19:50.373Z,94601.02
2019-04-27T11:22:26.052Z,94591.06
2019-04-27T11:24:57.977Z,94600.75
2019-04-27T11:27:29.793Z,94601.09
2019-04-27T11:30:01.743Z,94603.34
2019-04-27T11:32:35.063Z,94608.38
2019-04-27T11:35:31.973Z,94610.86
2019-04-27T11:38:05.521Z,94610.31
2019-04-27T11:40:38.389Z,94593.09
2019-04-27T11:43:10.468Z,94596.44
2019-04-27T11:45:42.293Z,94600.38
2019-04-27T11:48:16.025Z,94599.69
2019-04-27T11:50:47.369Z,94589.63
2019-04-27T11:53:22.709Z,94603.49
2019-04-27T11:55:52.364Z,94613.95
2019-04-27T11:58:24.001Z,94629.88
2019-04-27T12:00:55.803Z,94637.18
2019-04-27T12:03:27.442Z,94655.15
2019-04-27T12:06:00.337Z,94668.09
2019-04-27T12:08:32.355Z,94687.67
2019-04-27T12:11:05.828Z,94683.13
2019-04-27T12:13:38.934Z,94655.59
2019-04-27T12:16:10.725Z,94623.50
2019-04-27T12:18:42.677Z,94596.79
2019-04-27T12:21:14.162Z,94573.14
2019-04-27T12:23:47.240Z,94562.88
2019-04-27T12:26:44.467Z,94541.59
2019-04-27T12:29:19.200Z,94550.79
2019-04-27T12:31:51.301Z,94558.27
2019-04-27T12:34:23.204Z,94557.20
2019-04-27T12:36:54.810Z,94554.34
2019-04-27T12:39:26.769Z,94550.41
2019-04-27T12:41:58.444Z,94542.31
2019-04-27T12:44:30.160Z,94540.69
2019-04-27T12:47:03.133Z,94554.66
2019-04-27T12:49:36.240Z,94554.89
2019-04-27T12:52:08.870Z,94550.59
2019-04-27T12:54:56.700Z,94558.29
2019-04-27T12:57:40.893Z,94545.48
2019-04-27T13:00:19.145Z,94531.78
2019-04-27T13:02:50.961Z,94511.88
2019-04-27T13:05:22.935Z,94501.13
2019-04-27T13:07:54.656Z,94488.41
2019-04-27T13:10:26.202Z,94483.39
2019-04-27T13:12:57.775Z,94482.50
2019-04-27T13:15:29.495Z,94499.63
2019-04-27T13:18:01.447Z,94503.11
2019-04-27T13:20:33.326Z,94506.50
2019-04-27T13:23:07.191Z,94514.20
2019-04-27T13:25:38.847Z,94516.47
2019-04-27T13:28:10.358Z,94523.70
2019-04-27T13:30:42.198Z,94522.78
2019-04-27T13:33:17.190Z,94515.13
2019-04-27T13:35:47.703Z,94520.68
2019-04-27T13:38:19.400Z,94518.63
2019-04-27T13:41:09.014Z,94510.73
2019-04-27T13:43:40.705Z,94506.41
2019-04-27T13:46:34.478Z,94507.09
2019-04-27T13:49:40.335Z,94506.05
2019-04-27T13:52:16.219Z,94518.50
2019-04-27T13:54:48.077Z,94538.94
2019-04-27T13:57:19.471Z,94554.09
2019-04-27T13:59:52.284Z,94560.34
2019-04-27T14:02:30.195Z,94565.97
2019-04-27T14:04:59.034Z,94575.75
2019-04-27T14:07:30.622Z,94591.83
2019-04-27T14:10:02.606Z,94622.00
2019-04-27T14:12:34.583Z,94622.67
2019-04-27T14:15:08.519Z,94641.38
2019-04-27T14:17:40.389Z,94654.58
2019-04-27T14:20:12.035Z,94667.61
2019-04-27T14:22:43.754Z,94684.44
2019-04-27T14:25:15.198Z,94685.74
2019-04-27T14:27:46.644Z,94685.18
2019-04-27T14:30:19.837Z,94708.98
2019-04-27T14:32:51.655Z,94712.56
2019-04-27T14:35:23.346Z,94726.45
2019-04-27T14:37:54.830Z,94729.09
2019-04-27T14:40:26.567Z,94735.25
2019-04-27T14:42:59.014Z,94715.27
2019-04-27T14:45:31.214Z,94714.48
2019-04-27T14:48:03.006Z,94710.20
2019-04-27T14:50:34.763Z,94706.48
2019-04-27T14:53:06.632Z,94712.61
2019-04-27T14:55:38.811Z,94717.41
2019-04-27T14:58:10.395Z,94733.92
2019-04-27T15:00:42.121Z,94755.26
2019-04-27T15:03:14.210Z,94762.72
2019-04-27T15:05:49.818Z,94767.24
2019-04-27T15:08:19.514Z,94772.59
2019-04-27T15:10:51.090Z,94769.11
2019-04-27T15:13:22.836Z,94780.30
2019-04-27T15:15:54.529Z,94773.87
2019-04-27T15:18:29.962Z,94782.67
2019-04-27T15:21:02.632Z,94782.14
2019-04-27T15:23:35.085Z,94782.92
2019-04-27T15:26:06.584Z,94788.21
2019-04-27T15:28:40.104Z,94787.23
2019-04-27T15:31:40.863Z,94796.04
2019-04-27T15:34:27.482Z,94791.23
2019-04-27T15:37:18.248Z,94798.16
2019-04-27T15:40:12.766Z,94797.63
2019-04-27T15:42:52.927Z,94791.50
2019-04-27T15:45:24.445Z,94781.94
2019-04-27T15:47:56.188Z,94779.80
2019-04-27T15:50:31.960Z,94771.80
2019-04-27T15:53:02.907Z,94773.94
2019-04-27T15:55:37.419Z,94756.06
2019-04-27T15:58:09.749Z,94753.94
2019-04-27T16:00:41.504Z,94745.12
2019-04-27T16:03:13.069Z,94737.40
2019-04-27T16:05:44.566Z,94727.53
2019-04-27T16:08:16.226Z,94733.93
2019-04-27T16:10:48.710Z,94731.27
2019-04-27T16:13:20.729Z,94727.27
2019-04-27T16:15:54.014Z,94720.06
2019-04-27T16:18:24.678Z,94729.38
2019-04-27T16:20:58.582Z,94721.94
2019-04-27T16:23:33.559Z,94725.55
2019-04-27T16:26:05.116Z,94720.52
2019-04-27T16:28:37.504Z,94718.40
2019-04-27T16:31:09.306Z,94716.25
2019-04-27T16:33:40.988Z,94713.57
2019-04-27T16:36:12.630Z,94692.21
2019-04-27T16:39:08.343Z,94689.23
2019-04-27T16:41:37.318Z,94684.60
2019-04-27T16:44:11.078Z,94669.45
2019-04-27T16:46:43.312Z,94674.53
2019-04-27T16:49:15.357Z,94679.92
2019-04-27T16:51:51.058Z,94672.96
2019-04-27T16:54:21.281Z,94676.47
2019-04-27T16:57:02.538Z,94673.31
2019-04-27T16:59:42.715Z,94676.81
2019-04-27T17:02:01.766Z,94669.86
2019-04-27T17:04:33.454Z,94674.95
2019-04-27T17:07:04.969Z,94677.64
2019-04-27T17:09:42.190Z,94676.83
2019-04-27T17:12:10.059Z,94678.71
2019-04-27T17:14:58.035Z,94679.03
2019-04-27T17:17:47.136Z,94676.63
2019-04-27T17:20:21.105Z,94661.70
2019-04-27T17:22:53.308Z,94656.92
2019-04-27T17:25:24.914Z,94658.52
2019-04-27T17:28:04.155Z,94657.97
2019-04-27T17:30:39.835Z,94665.72
2019-04-27T17:33:24.286Z,94662.52
2019-04-27T17:35:57.659Z,94667.30
2019-04-27T17:38:30.500Z,94678.50
2019-04-27T17:41:04.614Z,94681.96
2019-04-27T17:43:37.478Z,94707.28
2019-04-27T17:46:11.563Z,94707.01
2019-04-27T17:48:42.382Z,94709.89
2019-04-27T17:51:14.037Z,94715.53
2019-04-27T17:53:49.687Z,94725.86
2019-04-27T17:56:33.321Z,94731.52
2019-04-27T17:58:58.435Z,94730.39
2019-04-27T18:01:31.946Z,94736.04
2019-04-27T18:04:06.455Z,94733.66
2019-04-27T18:06:39.066Z,94736.84
2019-04-27T18:09:14.929Z,94738.16
2019-04-27T18:11:48.650Z,94740.58
2019-04-27T18:14:20.282Z,94741.91
2019-04-27T18:16:51.970Z,94736.84
2019-04-27T18:19:34.822Z,94744.30
2019-04-27T18:22:07.445Z,94744.56
2019-04-27T18:24:47.598Z,94744.30
2019-04-27T18:27:37.703Z,94746.89
2019-04-27T18:30:21.763Z,94749.59
2019-04-27T18:32:53.558Z,94754.38
2019-04-27T18:35:26.164Z,94745.31
2019-04-27T18:38:01.606Z,94750.61
2019-04-27T18:40:33.608Z,94748.50
2019-04-27T18:43:06.636Z,94757.83
2019-04-27T18:45:44.803Z,94757.55
2019-04-27T18:48:18.775Z,94765.00
2019-04-27T18:51:08.331Z,94766.34
2019-04-27T18:53:41.774Z,94773.28
2019-04-27T18:56:16.537Z,94762.05
2019-04-27T18:58:48.534Z,94771.65
2019-04-27T19:01:20.347Z,94767.08
2019-04-27T19:03:54.512Z,94776.69
2019-04-27T19:06:26.419Z,94763.88
2019-04-27T19:09:01.165Z,94768.38
2019-04-27T19:11:38.195Z,94765.97
2019-04-27T19:14:09.876Z,94771.02
2019-04-27T19:16:42.523Z,94770.20
2019-04-27T19:19:14.475Z,94769.97
2019-04-27T19:21:48.060Z,94778.46
2019-04-27T19:24:20.030Z,94774.97
2019-04-27T19:27:17.947Z,94772.56
2019-04-27T19:29:49.714Z,94783.78
2019-04-27T19:32:21.791Z,94779.13
2019-04-27T19:34:53.719Z,94776.48
2019-04-27T19:37:25.673Z,94775.66
2019-04-27T19:39:58.357Z,94767.91
2019-04-27T19:42:30.124Z,94775.66
2019-04-27T19:45:02.105Z,94767.91
2019-04-27T19:47:34.275Z,94771.27
2019-04-27T19:50:06.571Z,94766.14
2019-04-27T19:52:38.937Z,94766.17
2019-04-27T19:55:10.871Z,94764.44
2019-04-27T19:57:42.756Z,94763.74
2019-04-27T20:00:39.855Z,94751.36
2019-04-27T20:03:13.464Z,94753.67
2019-04-27T20:05:45.440Z,94754.10
2019-04-27T20:08:20.688Z,94746.59
2019-04-27T20:10:52.546Z,94745.55
2019-04-27T20:13:24.098Z,94749.25
2019-04-27T20:15:57.448Z,94757.69
2019-04-27T20:18:28.996Z,94760.62
2019-04-27T20:21:00.977Z,94757.81
2019-04-27T20:23:32.589Z,94762.33
2019-04-27T20:26:04.199Z,94756.30
2019-04-27T20:28:38.457Z,94764.02
2019-04-27T20:31:09.406Z,94759.08
2019-04-27T20:33:41.615Z,94753.46
2019-04-27T20:36:13.450Z,94757.14
2019-04-27T20:38:45.274Z,94753.09
2019-04-27T20:41:16.954Z,94749.91
2019-04-27T20:43:48.643Z,94745.44
2019-04-27T20:46:22.486Z,94751.80
2019-04-27T20:48:52.662Z,94747.71
2019-04-27T20:51:44.194Z,94744.81
2019-04-27T20:54:16.702Z,94745.55
2019-04-27T20:56:48.410Z,94746.59
2019-04-27T20:59:22.103Z,94737.83
2019-04-27T21:01:53.931Z,94726.02
2019-04-27T21:04:30.925Z,94728.50
2019-04-27T21:07:03.885Z,94728.11
2019-04-27T21:09:35.596Z,94726.81
2019-04-27T21:12:07.425Z,94731.08
2019-04-27T21:14:38.996Z,94732.13
2019-04-27T21:17:11.709Z,94735.30
2019-04-27T21:19:44.010Z,94738.14
2019-04-27T21:22:15.858Z,94732.42
2019-04-27T21:24:47.322Z,94734.97
2019-04-27T21:27:19.099Z,94727.01
2019-04-27T21:29:51.606Z,94724.14
2019-04-27T21:32:24.150Z,94722.22
2019-04-27T21:34:55.917Z,94729.63
2019-04-27T21:37:27.626Z,94728.82
2019-04-27T21:40:16.874Z,94734.58
2019-04-27T21:42:50.928Z,94734.66
2019-04-27T21:45:22.703Z,94736.95
2019-04-27T21:47:54.401Z,94742.89
2019-04-27T21:50:26.101Z,94741.97
2019-04-27T21:53:06.210Z,94744.38
2019-04-27T21:55:38.378Z,94739.44
2019-04-27T21:58:11.561Z,94748.09
2019-04-27T22:01:05.257Z,94741.97
2019-04-27T22:03:38.502Z,94739.12
2019-04-27T22:06:11.596Z,94726.82
2019-04-27T22:08:43.325Z,94731.89
2019-04-27T22:11:15.128Z,94724.17
2019-04-27T22:13:47.888Z,94733.66
2019-04-27T22:16:21.326Z,94724.44
2019-04-27T22:18:54.208Z,94725.35
2019-04-27T22:21:25.815Z,94729.41
2019-04-27T22:24:31.197Z,94732.88
2019-04-27T22:27:03.378Z,94724.55
2019-04-27T22:29:35.380Z,94722.53
2019-04-27T22:32:07.244Z,94719.60
2019-04-27T22:34:38.604Z,94720.38
2019-04-27T22:37:11.082Z,94713.47
2019-04-27T22:40:04.805Z,94712.20
2019-04-27T22:43:05.605Z,94709.99
2019-04-27T22:45:37.826Z,94718.81
2019-04-27T22:48:11.170Z,94715.03
2019-04-27T22:50:42.854Z,94711.08
2019-04-27T22:53:14.398Z,94712.33
2019-04-27T22:56:03.788Z,94710.29
2019-04-27T22:58:37.348Z,94716.09
2019-04-27T23:01:23.410Z,94715.25
2019-04-27T23:03:56.094Z,94719.45
2019-04-27T23:06:27.606Z,94714.36
2019-04-27T23:08:59.471Z,94716.07
2019-04-27T23:11:31.488Z,94719.59
2019-04-27T23:14:03.443Z,94719.59
2019-04-27T23:16:37.489Z,94719.41
2019-04-27T23:19:10.891Z,94721.72
2019-04-27T23:21:44.136Z,94719.69
2019-04-27T23:24:15.693Z,94717.45
2019-04-27T23:26:47.614Z,94714.56
2019-04-27T23:29:21.275Z,94719.47
2019-04-27T23:32:11.707Z,94718.34
2019-04-27T23:34:43.567Z,94718.03
2019-04-27T23:37:15.273Z,94716.92
2019-04-27T23:39:46.824Z,94722.62
2019-04-27T23:42:18.505Z,94731.02
2019-04-27T23:44:50.087Z,94720.04
2019-04-27T23:47:22.137Z,94721.87
2019-04-27T23:49:53.939Z,94730.52
2019-04-27T23:52:44.936Z,94734.69
2019-04-27T23:55:16.947Z,94733.42
2019-04-27T23:57:48.903Z,94731.16
